createdAt,value
2018-12-31T00:00:37.846Z,7.70
2018-12-31T00:03:07.520Z,7.68
2018-12-31T00:05:37.042Z,7.69
2018-12-31T00:08:06.567Z,7.69
2018-12-31T00:10:36.230Z,7.67
2018-12-31T00:13:05.820Z,7.66
2018-12-31T00:15:36.063Z,7.67
2018-12-31T00:18:05.731Z,7.68
2018-12-31T00:20:35.348Z,7.68
2018-12-31T00:23:05.085Z,7.69
2018-12-31T00:25:34.861Z,7.68
2018-12-31T00:28:04.425Z,7.69
2018-12-31T00:30:33.943Z,7.68
2018-12-31T00:33:03.598Z,7.69
2018-12-31T00:35:33.306Z,7.70
2018-12-31T00:38:03.140Z,7.70
2018-12-31T00:40:32.629Z,7.71
2018-12-31T00:43:02.548Z,7.71
2018-12-31T00:45:32.144Z,7.70
2018-12-31T00:48:01.859Z,7.71
2018-12-31T00:50:31.464Z,7.72
2018-12-31T00:53:01.004Z,7.71
2018-12-31T00:55:30.532Z,7.70
2018-12-31T00:58:00.354Z,7.71
2018-12-31T01:00:30.366Z,7.71
2018-12-31T01:03:00.214Z,7.71
2018-12-31T01:05:29.741Z,7.71
2018-12-31T01:07:59.471Z,7.71
2018-12-31T01:10:29.330Z,7.72
2018-12-31T01:12:58.983Z,7.71
2018-12-31T01:15:28.475Z,7.71
2018-12-31T01:17:58.148Z,7.71
2018-12-31T01:20:27.544Z,7.71
2018-12-31T01:22:57.237Z,7.70
2018-12-31T01:25:27.240Z,7.69
2018-12-31T01:27:56.810Z,7.69
2018-12-31T01:30:26.417Z,7.70
2018-12-31T01:32:56.226Z,7.69
2018-12-31T01:35:25.905Z,7.69
2018-12-31T01:37:55.386Z,7.70
2018-12-31T01:40:25.026Z,7.77
2018-12-31T01:42:54.900Z,7.75
2018-12-31T01:45:24.520Z,7.73
2018-12-31T01:47:54.457Z,7.73
2018-12-31T01:50:24.028Z,7.74
2018-12-31T01:52:53.464Z,7.72
2018-12-31T01:55:23.066Z,7.72
2018-12-31T01:57:52.732Z,7.70
2018-12-31T02:00:22.526Z,7.69
2018-12-31T02:02:52.018Z,7.68
2018-12-31T02:05:21.558Z,7.71
2018-12-31T02:07:51.576Z,7.70
2018-12-31T02:10:21.098Z,7.72
2018-12-31T02:12:50.697Z,7.71
2018-12-31T02:15:20.241Z,7.70
2018-12-31T02:17:50.265Z,7.69
2018-12-31T02:20:19.887Z,7.71
2018-12-31T02:22:49.916Z,7.68
2018-12-31T02:25:19.584Z,7.69
2018-12-31T02:27:49.158Z,7.70
2018-12-31T02:30:18.863Z,7.69
2018-12-31T02:32:48.846Z,7.69
2018-12-31T02:35:18.494Z,7.70
2018-12-31T02:37:47.988Z,7.70
2018-12-31T02:40:17.574Z,7.71
2018-12-31T02:42:47.109Z,7.70
2018-12-31T02:45:18.399Z,7.71
2018-12-31T02:47:48.250Z,7.70
2018-12-31T02:50:17.953Z,7.71
2018-12-31T02:52:47.524Z,7.72
2018-12-31T02:55:17.631Z,7.72
2018-12-31T02:57:48.054Z,7.72
2018-12-31T03:00:17.891Z,7.72
2018-12-31T03:02:47.479Z,7.73
2018-12-31T03:05:16.963Z,7.73
2018-12-31T03:07:46.777Z,7.71
2018-12-31T03:10:17.200Z,7.73
2018-12-31T03:12:48.157Z,7.72
2018-12-31T03:15:19.197Z,7.72
2018-12-31T03:17:49.227Z,7.72
2018-12-31T03:20:19.470Z,7.73
2018-12-31T03:22:49.200Z,7.73
2018-12-31T03:25:19.208Z,7.72
2018-12-31T03:27:49.170Z,7.72
2018-12-31T03:30:18.783Z,7.72
2018-12-31T03:32:49.156Z,7.72
2018-12-31T03:35:20.559Z,7.72
2018-12-31T03:37:51.571Z,7.72
2018-12-31T03:40:21.736Z,7.72
2018-12-31T03:42:51.930Z,7.74
2018-12-31T03:45:21.853Z,7.72
2018-12-31T03:47:51.878Z,7.72
2018-12-31T03:50:21.725Z,7.72
2018-12-31T03:52:51.424Z,7.73
2018-12-31T03:55:21.492Z,7.73
2018-12-31T03:57:51.399Z,7.72
2018-12-31T04:00:21.319Z,7.72
2018-12-31T04:02:51.437Z,7.73
2018-12-31T04:05:21.369Z,7.73
2018-12-31T04:07:53.076Z,7.73
2018-12-31T04:10:22.548Z,7.73
2018-12-31T04:12:52.758Z,7.73
2018-12-31T04:15:22.981Z,7.73
2018-12-31T04:17:53.024Z,7.72
2018-12-31T04:20:22.903Z,7.72
2018-12-31T04:22:52.777Z,7.73
2018-12-31T04:25:22.869Z,7.73
2018-12-31T04:27:52.507Z,7.72
2018-12-31T04:30:23.211Z,7.72
2018-12-31T04:32:53.306Z,7.72
2018-12-31T04:35:23.077Z,7.72
2018-12-31T04:37:53.046Z,7.72
2018-12-31T04:40:23.400Z,7.73
2018-12-31T04:42:53.111Z,7.73
2018-12-31T04:45:23.065Z,7.72
2018-12-31T04:47:53.627Z,7.74
2018-12-31T04:50:23.659Z,7.76
2018-12-31T04:52:53.510Z,7.77
2018-12-31T04:55:24.533Z,7.75
2018-12-31T04:57:55.079Z,7.77
2018-12-31T05:00:24.873Z,7.76
2018-12-31T05:02:54.557Z,7.75
2018-12-31T05:05:24.172Z,7.74
2018-12-31T05:07:53.854Z,7.74
2018-12-31T05:10:24.050Z,7.73
2018-12-31T05:12:54.361Z,7.74
2018-12-31T05:15:25.370Z,7.74
2018-12-31T05:17:55.175Z,7.74
2018-12-31T05:20:25.220Z,7.74
2018-12-31T05:22:55.569Z,7.75
2018-12-31T05:25:26.065Z,7.74
2018-12-31T05:27:55.936Z,7.73
2018-12-31T05:30:25.864Z,7.75
2018-12-31T05:32:56.444Z,7.74
2018-12-31T05:35:26.283Z,7.73
2018-12-31T05:37:56.015Z,7.74
2018-12-31T05:40:26.472Z,7.75
2018-12-31T05:42:56.340Z,7.74
2018-12-31T05:45:26.318Z,7.73
2018-12-31T05:47:56.755Z,7.74
2018-12-31T05:50:26.578Z,7.73
2018-12-31T05:52:57.016Z,7.75
2018-12-31T05:55:26.936Z,7.74
2018-12-31T05:57:57.183Z,7.73
2018-12-31T06:00:27.041Z,7.74
2018-12-31T06:02:56.897Z,7.74
2018-12-31T06:05:27.142Z,7.73
2018-12-31T06:07:56.903Z,7.74
2018-12-31T06:10:26.751Z,7.74
2018-12-31T06:12:57.343Z,7.73
2018-12-31T06:15:28.979Z,7.74
2018-12-31T06:17:59.124Z,7.74
2018-12-31T06:20:29.249Z,7.76
2018-12-31T06:22:59.474Z,7.75
2018-12-31T06:25:29.672Z,7.77
2018-12-31T06:28:00.712Z,7.75
2018-12-31T06:30:30.703Z,7.76
2018-12-31T06:33:01.414Z,7.79
2018-12-31T06:35:31.917Z,7.76
2018-12-31T06:38:02.574Z,7.78
2018-12-31T06:40:32.907Z,7.77
2018-12-31T06:43:03.095Z,7.77
2018-12-31T06:45:33.150Z,7.77
2018-12-31T06:48:02.957Z,7.78
2018-12-31T06:50:32.770Z,7.78
2018-12-31T06:53:02.412Z,7.79
2018-12-31T06:55:32.146Z,7.79
2018-12-31T06:58:01.878Z,7.78
2018-12-31T07:00:31.884Z,7.80
2018-12-31T07:03:01.357Z,7.79
2018-12-31T07:05:30.966Z,7.79
2018-12-31T07:08:01.092Z,7.80
2018-12-31T07:10:30.673Z,7.81
2018-12-31T07:13:01.273Z,7.81
2018-12-31T07:15:30.961Z,7.81
2018-12-31T07:18:00.786Z,7.81
2018-12-31T07:20:30.442Z,7.81
2018-12-31T07:23:00.116Z,7.83
2018-12-31T07:25:30.061Z,7.83
2018-12-31T07:27:59.741Z,7.82
2018-12-31T07:30:29.243Z,7.84
2018-12-31T07:32:59.051Z,7.83
2018-12-31T07:35:28.822Z,7.84
2018-12-31T07:37:58.528Z,7.84
2018-12-31T07:40:28.322Z,7.84
2018-12-31T07:42:57.801Z,7.85
2018-12-31T07:45:27.413Z,7.86
2018-12-31T07:47:57.168Z,7.84
2018-12-31T07:50:28.196Z,7.87
2018-12-31T07:52:58.274Z,7.87
2018-12-31T07:55:28.205Z,7.87
2018-12-31T07:57:57.810Z,7.87
2018-12-31T08:00:27.711Z,7.87
2018-12-31T08:02:57.267Z,7.86
2018-12-31T08:05:26.982Z,7.88
2018-12-31T08:07:56.440Z,7.88
2018-12-31T08:10:26.474Z,7.88
2018-12-31T08:13:03.236Z,7.88
2018-12-31T08:15:32.965Z,7.90
2018-12-31T08:18:03.000Z,7.89
2018-12-31T08:20:32.620Z,7.90
2018-12-31T08:23:02.154Z,7.90
2018-12-31T08:25:32.069Z,7.92
2018-12-31T08:28:02.370Z,7.92
2018-12-31T08:30:31.892Z,7.91
2018-12-31T08:33:01.400Z,7.92
2018-12-31T08:35:31.335Z,7.92
2018-12-31T08:38:00.976Z,7.92
2018-12-31T08:40:30.538Z,7.93
2018-12-31T08:43:00.120Z,7.93
2018-12-31T08:45:29.699Z,7.94
2018-12-31T08:47:59.322Z,7.93
2018-12-31T08:50:28.912Z,7.94
2018-12-31T08:52:59.106Z,7.93
2018-12-31T08:55:28.948Z,7.95
2018-12-31T08:57:58.632Z,7.95
2018-12-31T09:00:28.190Z,7.93
2018-12-31T09:02:57.938Z,7.95
2018-12-31T09:05:27.927Z,7.95
2018-12-31T09:07:57.537Z,7.96
2018-12-31T09:10:27.243Z,7.97
2018-12-31T09:12:56.905Z,7.98
2018-12-31T09:15:26.426Z,7.98
2018-12-31T09:17:56.138Z,7.98
2018-12-31T09:20:25.623Z,7.98
2018-12-31T09:22:55.164Z,7.98
2018-12-31T09:25:24.829Z,7.99
2018-12-31T09:27:54.457Z,7.99
2018-12-31T09:30:24.038Z,8.00
2018-12-31T09:32:53.671Z,8.01
2018-12-31T09:35:23.242Z,8.03
2018-12-31T09:37:52.755Z,8.02
2018-12-31T09:40:22.309Z,8.02
2018-12-31T09:42:51.881Z,8.07
2018-12-31T09:45:21.458Z,8.10
2018-12-31T09:47:51.020Z,8.11
2018-12-31T09:50:20.594Z,8.11
2018-12-31T09:52:51.020Z,8.11
2018-12-31T09:55:21.046Z,8.13
2018-12-31T09:57:50.856Z,8.21
2018-12-31T10:00:20.606Z,8.16
2018-12-31T10:02:50.182Z,8.16
2018-12-31T10:05:19.780Z,8.20
2018-12-31T10:07:50.003Z,8.18
2018-12-31T10:10:19.745Z,8.19
2018-12-31T10:12:49.264Z,8.20
2018-12-31T10:15:18.800Z,8.21
2018-12-31T10:17:48.305Z,8.22
2018-12-31T10:20:17.888Z,8.23
2018-12-31T10:22:48.768Z,8.24
2018-12-31T10:25:18.349Z,8.24
2018-12-31T10:27:47.882Z,8.24
2018-12-31T10:30:17.403Z,8.25
2018-12-31T10:32:47.055Z,8.25
2018-12-31T10:35:16.996Z,8.23
2018-12-31T10:37:46.704Z,8.24
2018-12-31T10:40:16.636Z,8.24
2018-12-31T10:42:46.941Z,8.24
2018-12-31T10:45:16.883Z,8.23
2018-12-31T10:47:46.817Z,8.23
2018-12-31T10:50:18.414Z,8.24
2018-12-31T10:52:48.323Z,8.23
2018-12-31T10:55:18.050Z,8.24
2018-12-31T10:57:47.817Z,8.23
2018-12-31T11:00:17.515Z,8.23
2018-12-31T11:02:47.001Z,8.23
2018-12-31T11:05:16.539Z,8.24
2018-12-31T11:07:45.969Z,8.23
2018-12-31T11:10:15.480Z,8.24
2018-12-31T11:12:45.166Z,8.24
2018-12-31T11:15:15.001Z,8.25
2018-12-31T11:17:44.868Z,8.25
2018-12-31T11:20:14.449Z,8.27
2018-12-31T11:22:43.933Z,8.27
2018-12-31T11:25:13.437Z,8.27
2018-12-31T11:27:42.942Z,8.29
2018-12-31T11:30:12.449Z,8.31
2018-12-31T11:32:41.962Z,8.32
2018-12-31T11:35:11.474Z,8.33
2018-12-31T11:37:40.974Z,8.43
2018-12-31T11:40:10.455Z,8.45
2018-12-31T11:58:10.843Z,10.66
2018-12-31T12:00:40.285Z,10.37
2018-12-31T12:03:09.864Z,10.15
2018-12-31T12:05:39.307Z,9.30
2018-12-31T12:08:08.986Z,8.96
2018-12-31T12:10:38.509Z,8.76
2018-12-31T12:13:08.161Z,8.67
2018-12-31T12:15:37.897Z,8.67
2018-12-31T12:18:07.563Z,8.68
2018-12-31T12:20:37.087Z,8.65
2018-12-31T12:23:06.764Z,8.68
2018-12-31T12:25:36.360Z,8.65
2018-12-31T12:28:05.858Z,8.66
2018-12-31T12:30:35.430Z,8.67
2018-12-31T12:33:05.613Z,8.64
2018-12-31T12:35:35.079Z,8.70
2018-12-31T12:38:04.923Z,8.70
2018-12-31T12:40:34.808Z,8.66
2018-12-31T12:43:04.719Z,8.63
2018-12-31T12:45:34.765Z,8.68
2018-12-31T12:48:04.436Z,8.67
2018-12-31T12:50:34.526Z,8.67
2018-12-31T12:53:04.677Z,8.69
2018-12-31T12:55:34.097Z,8.71
2018-12-31T12:58:03.672Z,8.70
2018-12-31T13:00:33.403Z,8.72
2018-12-31T13:03:02.915Z,8.79
2018-12-31T13:05:32.580Z,8.71
2018-12-31T13:08:02.374Z,8.70
2018-12-31T13:10:32.221Z,8.70
2018-12-31T13:13:03.104Z,8.75
2018-12-31T13:15:32.917Z,8.72
2018-12-31T13:18:02.700Z,8.74
2018-12-31T13:20:32.481Z,8.71
2018-12-31T13:23:01.923Z,8.80
2018-12-31T13:25:31.602Z,8.71
2018-12-31T13:28:01.393Z,8.67
2018-12-31T13:30:31.052Z,8.66
2018-12-31T13:33:00.655Z,8.69
2018-12-31T13:35:30.262Z,8.66
2018-12-31T13:38:00.004Z,8.72
2018-12-31T13:40:29.718Z,8.77
2018-12-31T13:42:59.153Z,8.70
2018-12-31T13:45:28.742Z,8.74
2018-12-31T13:47:58.434Z,8.70
2018-12-31T13:50:27.944Z,8.77
2018-12-31T13:52:57.618Z,8.78
2018-12-31T13:55:27.435Z,8.76
2018-12-31T13:57:57.086Z,8.80
2018-12-31T14:00:32.243Z,8.77
2018-12-31T14:03:01.692Z,8.82
2018-12-31T14:05:31.209Z,8.82
2018-12-31T14:08:00.958Z,8.80
2018-12-31T14:10:37.941Z,8.79
2018-12-31T14:13:07.606Z,8.83
2018-12-31T14:15:37.424Z,8.87
2018-12-31T14:18:06.970Z,8.89
2018-12-31T14:20:36.995Z,8.85
2018-12-31T14:23:06.757Z,8.83
2018-12-31T14:25:36.392Z,8.86
2018-12-31T14:28:06.107Z,8.83
2018-12-31T14:30:35.752Z,8.83
2018-12-31T14:33:05.330Z,8.84
2018-12-31T14:35:35.309Z,8.83
2018-12-31T14:38:04.784Z,8.86
2018-12-31T14:40:34.336Z,8.82
2018-12-31T14:43:03.782Z,8.83
2018-12-31T14:45:33.276Z,8.85
2018-12-31T14:48:03.349Z,8.86
2018-12-31T14:50:33.027Z,8.81
2018-12-31T14:53:02.671Z,8.79
2018-12-31T14:55:32.224Z,8.76
2018-12-31T14:58:01.841Z,8.73
2018-12-31T15:00:31.337Z,8.79
2018-12-31T15:03:00.777Z,8.74
2018-12-31T15:05:30.299Z,8.75
2018-12-31T15:07:59.799Z,8.71
2018-12-31T15:10:29.622Z,8.69
2018-12-31T15:12:59.367Z,8.69
2018-12-31T15:15:28.991Z,8.67
2018-12-31T15:17:58.647Z,8.64
2018-12-31T15:20:28.058Z,8.62
2018-12-31T15:22:57.572Z,8.65
2018-12-31T15:25:27.231Z,8.58
2018-12-31T15:27:56.836Z,8.52
2018-12-31T15:30:26.318Z,8.48
2018-12-31T15:32:55.975Z,8.52
2018-12-31T15:35:25.911Z,8.47
2018-12-31T15:37:55.375Z,8.42
2018-12-31T15:40:24.977Z,8.26
2018-12-31T15:42:54.635Z,8.12
2018-12-31T15:45:24.209Z,8.07
2018-12-31T15:47:59.743Z,7.99
2018-12-31T15:50:29.215Z,7.97
2018-12-31T15:52:58.833Z,7.94
2018-12-31T15:55:28.527Z,7.93
2018-12-31T15:57:58.115Z,7.88
2018-12-31T16:00:27.784Z,7.89
2018-12-31T16:02:57.434Z,7.82
2018-12-31T16:05:39.315Z,7.77
2018-12-31T16:08:15.314Z,7.77
2018-12-31T16:10:44.899Z,7.81
2018-12-31T16:13:14.423Z,7.78
2018-12-31T16:15:43.884Z,7.76
2018-12-31T16:18:13.429Z,7.76
2018-12-31T16:20:43.124Z,7.82
2018-12-31T16:23:12.569Z,7.87
2018-12-31T16:25:42.195Z,7.83
2018-12-31T16:28:11.792Z,7.82
2018-12-31T16:30:41.225Z,7.87
2018-12-31T16:33:10.794Z,7.96
2018-12-31T16:35:40.209Z,8.02
2018-12-31T16:38:09.797Z,8.03
2018-12-31T16:40:39.267Z,8.04
2018-12-31T16:43:08.837Z,8.05
2018-12-31T16:45:38.273Z,8.00
2018-12-31T16:48:07.793Z,8.02
2018-12-31T16:50:37.190Z,8.04
2018-12-31T16:53:06.802Z,8.03
2018-12-31T16:55:36.666Z,8.08
2018-12-31T16:58:06.184Z,8.02
2018-12-31T17:00:35.918Z,8.03
2018-12-31T17:03:07.367Z,8.06
2018-12-31T17:05:36.899Z,8.02
2018-12-31T17:08:07.004Z,8.10
2018-12-31T17:10:36.610Z,8.14
2018-12-31T17:13:06.159Z,8.12
2018-12-31T17:15:35.851Z,8.11
2018-12-31T17:18:05.520Z,8.11
2018-12-31T17:20:35.313Z,8.20
2018-12-31T17:23:04.729Z,8.18
2018-12-31T17:25:34.625Z,8.19
2018-12-31T17:28:04.393Z,8.20
2018-12-31T17:30:34.455Z,8.25
2018-12-31T17:33:04.274Z,8.24
2018-12-31T17:35:34.219Z,8.31
2018-12-31T17:38:04.299Z,8.33
2018-12-31T17:40:33.763Z,8.33
2018-12-31T17:43:03.506Z,8.33
2018-12-31T17:45:35.085Z,8.38
2018-12-31T17:48:04.547Z,8.38
2018-12-31T17:50:34.075Z,8.42
2018-12-31T17:53:03.654Z,8.42
2018-12-31T17:55:33.117Z,8.41
2018-12-31T17:58:02.623Z,8.45
2018-12-31T18:00:32.147Z,8.42
2018-12-31T18:03:01.689Z,8.46
2018-12-31T18:05:31.133Z,8.45
2018-12-31T18:08:00.626Z,8.45
2018-12-31T18:10:30.166Z,8.46
2018-12-31T18:12:59.663Z,8.45
2018-12-31T18:15:29.153Z,8.46
2018-12-31T18:17:58.613Z,8.46
2018-12-31T18:20:28.088Z,8.47
2018-12-31T18:22:57.590Z,8.43
2018-12-31T18:25:27.028Z,8.44
2018-12-31T18:27:56.507Z,8.46
2018-12-31T18:30:25.913Z,8.54
2018-12-31T18:32:55.837Z,8.55
2018-12-31T18:35:25.559Z,8.64
2018-12-31T18:37:55.091Z,8.55
2018-12-31T18:40:24.541Z,8.60
2018-12-31T18:42:54.044Z,8.62
2018-12-31T18:45:23.769Z,8.61
2018-12-31T18:47:53.335Z,8.60
2018-12-31T18:50:22.813Z,8.59
2018-12-31T18:52:52.253Z,8.55
2018-12-31T18:55:21.719Z,8.61
2018-12-31T18:57:51.517Z,8.61
2018-12-31T19:00:21.245Z,8.58
2018-12-31T19:02:50.709Z,8.58
2018-12-31T19:05:20.209Z,8.55
2018-12-31T19:07:49.739Z,8.47
2018-12-31T19:10:19.301Z,8.37
2018-12-31T19:12:48.851Z,8.36
2018-12-31T19:15:18.472Z,8.34
2018-12-31T19:17:48.004Z,8.31
2018-12-31T19:20:17.622Z,8.25
2018-12-31T19:22:47.227Z,8.25
2018-12-31T19:25:16.770Z,8.26
2018-12-31T19:27:46.213Z,8.24
2018-12-31T19:30:15.721Z,8.27
2018-12-31T19:32:45.179Z,8.33
2018-12-31T19:35:14.764Z,8.29
2018-12-31T19:37:44.529Z,8.26
2018-12-31T19:40:14.222Z,8.21
2018-12-31T19:42:43.680Z,8.22
2018-12-31T19:45:13.230Z,8.17
2018-12-31T19:47:42.686Z,8.22
2018-12-31T19:50:12.332Z,8.20
2018-12-31T19:52:41.796Z,8.18
2018-12-31T19:55:11.284Z,8.11
2018-12-31T19:57:40.780Z,8.14
2018-12-31T20:00:10.314Z,8.12
2018-12-31T20:02:39.910Z,8.15
2018-12-31T20:05:09.415Z,8.12
2018-12-31T20:07:38.930Z,8.08
2018-12-31T20:10:08.528Z,8.12
2018-12-31T20:12:37.959Z,8.09
2018-12-31T20:15:07.504Z,8.09
2018-12-31T20:17:37.096Z,8.10
2018-12-31T20:20:06.534Z,8.16
2018-12-31T20:22:36.051Z,8.13
2018-12-31T20:25:05.645Z,8.09
2018-12-31T20:27:35.128Z,8.12
2018-12-31T20:30:04.964Z,8.19
2018-12-31T20:32:34.518Z,8.17
2018-12-31T20:35:03.984Z,8.19
2018-12-31T20:37:33.681Z,8.22
2018-12-31T20:40:03.297Z,8.18
2018-12-31T20:42:32.823Z,8.12
2018-12-31T20:45:04.336Z,8.12
2018-12-31T20:47:33.914Z,8.10
2018-12-31T20:50:05.155Z,8.16
2018-12-31T20:52:34.666Z,8.12
2018-12-31T20:55:04.382Z,8.13
2018-12-31T20:57:33.861Z,8.05
2018-12-31T21:00:03.512Z,8.13
2018-12-31T21:02:33.547Z,8.14
2018-12-31T21:05:03.011Z,8.14
2018-12-31T21:07:32.498Z,8.20
2018-12-31T21:10:02.073Z,8.20
2018-12-31T21:12:31.586Z,8.20
2018-12-31T21:15:01.446Z,8.23
2018-12-31T21:17:30.992Z,8.13
2018-12-31T21:20:00.443Z,8.22
2018-12-31T21:22:30.043Z,8.20
2018-12-31T21:24:59.587Z,8.20
2018-12-31T21:27:29.507Z,8.14
2018-12-31T21:29:59.033Z,8.17
2018-12-31T21:32:35.591Z,8.11
2018-12-31T21:35:07.407Z,8.14
2018-12-31T21:37:38.995Z,8.23
2018-12-31T21:40:09.060Z,8.20
2018-12-31T21:42:38.533Z,8.19
2018-12-31T21:45:08.421Z,8.18
2018-12-31T21:47:38.145Z,8.16
2018-12-31T21:50:07.600Z,8.08
2018-12-31T21:52:37.168Z,8.10
2018-12-31T21:55:06.916Z,8.11
2018-12-31T21:57:36.465Z,8.11
2018-12-31T22:00:08.370Z,8.08
2018-12-31T22:02:38.171Z,8.07
2018-12-31T22:05:07.687Z,8.12
2018-12-31T22:07:37.129Z,8.06
2018-12-31T22:10:06.695Z,8.04
2018-12-31T22:12:36.150Z,8.09
2018-12-31T22:15:07.468Z,7.99
2018-12-31T22:17:36.884Z,8.02
2018-12-31T22:20:08.729Z,8.04
2018-12-31T22:22:38.215Z,8.09
2018-12-31T22:25:07.748Z,8.02
2018-12-31T22:27:37.340Z,8.07
2018-12-31T22:30:07.703Z,8.03
2018-12-31T22:32:37.257Z,8.08
2018-12-31T22:35:06.764Z,8.11
2018-12-31T22:37:36.337Z,8.03
2018-12-31T22:40:06.016Z,8.07
2018-12-31T22:42:35.492Z,8.13
2018-12-31T22:45:05.816Z,8.07
2018-12-31T22:47:35.306Z,8.08
2018-12-31T22:50:07.491Z,8.10
2018-12-31T22:52:37.289Z,8.14
2018-12-31T22:55:06.868Z,8.20
2018-12-31T22:57:36.379Z,8.14
2018-12-31T23:00:08.814Z,8.18
2018-12-31T23:02:38.752Z,8.18
2018-12-31T23:05:08.845Z,8.20
2018-12-31T23:07:38.531Z,8.19
2018-12-31T23:10:09.260Z,8.22
2018-12-31T23:12:39.141Z,8.26
2018-12-31T23:15:15.964Z,8.24
2018-12-31T23:17:46.713Z,8.23
2018-12-31T23:20:16.454Z,8.31
2018-12-31T23:22:46.019Z,8.31
2018-12-31T23:25:16.201Z,8.28
2018-12-31T23:28:02.982Z,8.30
2018-12-31T23:30:36.599Z,8.38
2018-12-31T23:33:11.982Z,8.31
2018-12-31T23:35:52.939Z,8.30
2018-12-31T23:38:49.753Z,8.27
2018-12-31T23:41:23.433Z,8.36
2018-12-31T23:47:48.433Z,8.32
2018-12-31T23:49:39.933Z,8.29
2018-12-31T23:52:13.737Z,8.38
2018-12-31T23:55:00.043Z,8.30
2018-12-31T23:57:49.145Z,8.33
